Schedule Details


Flight Number: CTN531
Departure: Pulkovo (ULLI) at 18:50
Arrival: Franjo Tudman (LDZA) at 20:45
Route: TURAL?B141?RANVA?P863?RESMO?M155?VALGA?M985?BOKSU?M857?SUW?M985?EVINA?N744?TUSIN?M984?MIKOV?DCT?WGM?DCT?PETOV

Weather Information
ULLI 021500Z 06005MPS 030V090 CAVOK 17/02 Q1018 R10L/090060 NOSIG
LDZA 021500Z VRB04KT CAVOK 23/10 Q1012 TEMPO 04008KT
Schedule Frequency

Route Map